createdAt,value
2019-04-14T00:00:46.845Z,8.20
2019-04-14T00:03:23.870Z,8.48
2019-04-14T00:05:58.314Z,8.58
2019-04-14T00:08:28.427Z,8.50
2019-04-14T00:10:59.321Z,9.35
2019-04-14T00:13:29.171Z,9.15
2019-04-14T00:15:58.937Z,9.05
2019-04-14T00:18:29.408Z,8.98
2019-04-14T00:20:59.879Z,9.20
2019-04-14T00:23:30.417Z,9.03
2019-04-14T00:26:29.457Z,10.03
2019-04-14T00:29:00.048Z,10.23
2019-04-14T00:31:30.732Z,9.40
2019-04-14T00:34:02.885Z,10.40
2019-04-14T00:36:37.266Z,11.00
2019-04-14T00:39:21.003Z,10.05
2019-04-14T00:42:03.334Z,10.53
2019-04-14T00:44:41.013Z,10.88
2019-04-14T00:47:22.194Z,10.10
2019-04-14T00:49:53.036Z,11.73
2019-04-14T00:52:23.371Z,11.38
2019-04-14T00:54:54.249Z,11.10
2019-04-14T00:57:24.752Z,10.80
2019-04-14T00:59:55.231Z,11.75
2019-04-14T01:02:25.343Z,11.83
2019-04-14T01:04:55.523Z,12.03
2019-04-14T01:07:26.189Z,12.30
2019-04-14T01:09:55.797Z,12.60
2019-04-14T01:12:25.750Z,12.30
2019-04-14T01:14:56.000Z,12.95
2019-04-14T01:17:26.589Z,11.57
2019-04-14T01:19:57.042Z,12.75
2019-04-14T01:22:27.066Z,12.58
2019-04-14T01:24:57.559Z,13.85
2019-04-14T01:27:27.772Z,13.15
2019-04-14T01:29:58.160Z,13.38
2019-04-14T01:32:28.309Z,13.98
2019-04-14T01:34:58.928Z,12.95
2019-04-14T01:37:29.085Z,14.68
2019-04-14T01:39:58.978Z,14.18
2019-04-14T01:42:28.955Z,14.60
2019-04-14T01:44:59.273Z,14.33
2019-04-14T01:47:29.209Z,14.53
2019-04-14T01:49:59.505Z,15.45
2019-04-14T01:52:34.141Z,14.58
2019-04-14T01:55:13.383Z,15.40
2019-04-14T01:57:44.620Z,15.38
2019-04-14T02:00:33.667Z,15.48
2019-04-14T02:03:04.515Z,15.60
2019-04-14T02:05:34.372Z,15.28
2019-04-14T02:08:04.507Z,16.07
2019-04-14T02:10:34.735Z,15.93
2019-04-14T02:13:04.974Z,15.10
2019-04-14T02:15:35.214Z,16.75
2019-04-14T02:18:05.712Z,16.57
2019-04-14T02:20:36.060Z,16.55
2019-04-14T02:23:06.125Z,17.30
2019-04-14T02:25:36.085Z,15.63
2019-04-14T02:28:06.833Z,15.88
2019-04-14T02:30:46.043Z,17.65
2019-04-14T02:36:14.256Z,16.95
2019-04-14T02:38:41.022Z,16.52
2019-04-14T02:41:10.708Z,16.57
2019-04-14T02:43:57.645Z,17.73
2019-04-14T02:51:13.820Z,18.73
2019-04-14T02:56:22.328Z,18.70
2019-04-14T02:58:58.703Z,17.27
2019-04-14T03:01:14.683Z,19.02
2019-04-14T03:03:49.483Z,18.45
2019-04-14T03:06:17.869Z,20.05
2019-04-14T03:09:07.994Z,19.12
2019-04-14T03:11:24.560Z,19.87
2019-04-14T03:13:51.494Z,19.42
2019-04-14T03:16:33.018Z,19.20
2019-04-14T03:19:06.760Z,20.50
2019-04-14T03:24:28.545Z,19.73
2019-04-14T03:27:06.316Z,19.98
2019-04-14T03:32:32.330Z,20.68
2019-04-14T03:34:50.128Z,20.43
2019-04-14T03:39:46.585Z,20.05
2019-04-14T03:42:19.886Z,20.60
2019-04-14T03:44:49.473Z,21.00
2019-04-14T03:47:19.752Z,21.77
2019-04-14T03:49:52.446Z,20.90
2019-04-14T03:52:23.975Z,21.42
2019-04-14T03:54:47.130Z,21.12
2019-04-14T03:56:59.866Z,20.75
2019-04-14T03:59:30.303Z,20.97
2019-04-14T04:02:01.007Z,23.15
2019-04-14T04:04:31.537Z,21.12
2019-04-14T04:07:01.845Z,22.55
2019-04-14T04:09:34.272Z,22.58
2019-04-14T04:12:05.187Z,21.30
2019-04-14T04:14:35.693Z,22.65
2019-04-14T04:17:07.968Z,22.58
2019-04-14T04:19:49.178Z,23.23
2019-04-14T04:22:39.025Z,22.10
2019-04-14T04:25:11.492Z,22.90
2019-04-14T04:27:59.092Z,17.35
2019-04-14T04:30:36.273Z,22.87
2019-04-14T04:33:11.000Z,23.45
2019-04-14T04:35:42.175Z,24.12
2019-04-14T04:38:29.883Z,24.50
2019-04-14T04:40:59.513Z,23.52
2019-04-14T04:43:29.743Z,24.65
2019-04-14T04:46:00.662Z,23.67
2019-04-14T04:48:30.828Z,25.97
2019-04-14T04:51:00.669Z,22.50
2019-04-14T04:53:30.952Z,23.70
2019-04-14T04:56:01.488Z,24.15
2019-04-14T04:58:32.659Z,24.67
2019-04-14T05:01:03.516Z,24.10
2019-04-14T05:03:33.990Z,24.60
2019-04-14T05:06:41.711Z,24.35
2019-04-14T05:09:14.412Z,24.30
2019-04-14T05:11:46.868Z,25.75
2019-04-14T05:14:28.351Z,25.77
2019-04-14T05:16:57.996Z,23.75
2019-04-14T05:19:31.845Z,26.17
2019-04-14T05:21:58.786Z,25.20
2019-04-14T05:24:29.060Z,24.95
2019-04-14T05:26:59.274Z,25.20
2019-04-14T05:29:29.754Z,25.82
2019-04-14T05:32:00.115Z,27.27
2019-04-14T05:34:30.461Z,26.17
2019-04-14T05:37:00.690Z,26.73
2019-04-14T05:39:30.824Z,27.48
2019-04-14T05:42:10.730Z,27.32
2019-04-14T05:44:31.938Z,26.80
2019-04-14T05:47:02.189Z,27.48
2019-04-14T05:49:39.150Z,27.40
2019-04-14T05:52:03.420Z,27.55
2019-04-14T05:54:33.986Z,28.38
2019-04-14T05:57:04.402Z,27.85
2019-04-14T05:59:35.233Z,24.60
2019-04-14T06:02:05.348Z,27.02
2019-04-14T06:04:35.260Z,27.05
2019-04-14T06:07:05.198Z,28.10
2019-04-14T06:09:34.774Z,28.42
2019-04-14T06:12:04.352Z,28.42
2019-04-14T06:14:33.953Z,28.77
2019-04-14T06:17:03.533Z,28.62
2019-04-14T06:19:37.950Z,27.58
2019-04-14T06:22:05.036Z,28.90
2019-04-14T06:24:34.624Z,29.63
2019-04-14T06:27:04.196Z,30.02
2019-04-14T06:29:33.791Z,29.60
2019-04-14T06:32:14.107Z,30.43
2019-04-14T06:35:01.566Z,32.25
2019-04-14T06:37:32.780Z,30.52
2019-04-14T06:40:03.995Z,33.35
2019-04-14T06:42:33.571Z,33.55
2019-04-14T06:45:03.337Z,33.05
2019-04-14T06:47:32.923Z,31.45
2019-04-14T06:50:02.508Z,32.30
2019-04-14T06:52:32.094Z,32.65
2019-04-14T06:55:01.683Z,31.87
2019-04-14T06:57:31.255Z,32.85
2019-04-14T07:00:00.834Z,32.38
2019-04-14T07:02:30.421Z,33.30
2019-04-14T07:05:00.120Z,32.70
2019-04-14T07:07:29.699Z,31.45
2019-04-14T07:09:59.287Z,31.82
2019-04-14T07:12:28.909Z,33.20
2019-04-14T07:14:58.728Z,32.73
2019-04-14T07:17:29.723Z,33.02
2019-04-14T07:20:02.357Z,31.20
2019-04-14T07:22:30.980Z,31.50
2019-04-14T07:25:00.555Z,34.48
2019-04-14T07:27:30.128Z,32.40
2019-04-14T07:30:01.345Z,32.53
2019-04-14T07:32:35.295Z,35.13
2019-04-14T07:35:16.283Z,32.60
2019-04-14T07:37:47.512Z,33.02
2019-04-14T07:40:30.753Z,34.25
2019-04-14T07:43:04.798Z,31.02
2019-04-14T07:45:53.076Z,33.70
2019-04-14T07:48:24.306Z,33.73
2019-04-14T07:51:11.918Z,32.53
2019-04-14T07:53:46.329Z,32.80
2019-04-14T07:56:20.431Z,34.73
2019-04-14T07:58:57.519Z,35.38
2019-04-14T08:01:40.707Z,35.03
2019-04-14T08:04:14.651Z,34.92
2019-04-14T08:06:45.890Z,35.85
2019-04-14T08:09:15.467Z,33.20
2019-04-14T08:11:45.066Z,35.80
2019-04-14T08:14:14.635Z,37.38
2019-04-14T08:16:48.186Z,38.73
2019-04-14T08:19:18.365Z,36.53
2019-04-14T08:21:47.960Z,37.45
2019-04-14T08:24:17.551Z,37.33
2019-04-14T08:26:47.132Z,36.08
2019-04-14T08:29:16.740Z,35.98
2019-04-14T08:31:46.322Z,38.28
2019-04-14T08:34:15.907Z,38.20
2019-04-14T08:36:45.548Z,38.53
2019-04-14T08:39:15.139Z,39.23
2019-04-14T08:41:52.201Z,38.15
2019-04-14T08:44:32.646Z,39.05
2019-04-14T08:47:03.856Z,40.40
2019-04-14T08:49:37.745Z,40.95
2019-04-14T08:52:17.969Z,41.02
2019-04-14T08:54:49.199Z,38.45
2019-04-14T08:57:20.428Z,39.55
2019-04-14T09:00:03.921Z,40.85
2019-04-14T09:05:06.809Z,40.48
2019-04-14T09:07:38.011Z,39.42
2019-04-14T09:10:15.412Z,39.88
2019-04-14T09:12:52.084Z,39.95
2019-04-14T09:15:21.672Z,42.30
2019-04-14T09:17:51.252Z,41.58
2019-04-14T09:20:20.859Z,40.75
2019-04-14T09:22:50.458Z,41.33
2019-04-14T09:25:20.020Z,40.43
2019-04-14T09:27:49.596Z,41.42
2019-04-14T09:30:19.177Z,41.85
2019-04-14T09:32:48.747Z,41.98
2019-04-14T09:35:18.348Z,42.08
2019-04-14T09:37:47.923Z,41.30
2019-04-14T09:40:17.539Z,40.78
2019-04-14T09:42:47.123Z,43.15
2019-04-14T09:45:16.722Z,41.40
2019-04-14T09:47:46.546Z,41.85
2019-04-14T09:50:16.155Z,42.93
2019-04-14T09:52:45.809Z,42.95
2019-04-14T09:55:15.469Z,41.30
2019-04-14T09:57:45.055Z,42.60
2019-04-14T10:00:15.983Z,41.77
2019-04-14T10:02:45.557Z,41.98
2019-04-14T10:05:15.164Z,41.73
2019-04-14T10:07:44.747Z,40.67
2019-04-14T10:10:14.334Z,41.05
2019-04-14T10:12:43.910Z,39.55
2019-04-14T10:15:13.551Z,37.93
2019-04-14T10:45:22.763Z,40.10
2019-04-14T10:47:52.349Z,39.83
2019-04-14T10:50:30.563Z,38.30
2019-04-14T10:52:54.783Z,42.33
2019-04-14T10:55:24.371Z,38.30
2019-04-14T10:57:53.935Z,38.85
2019-04-14T11:00:23.644Z,40.38
2019-04-14T11:02:53.309Z,41.92
2019-04-14T11:05:23.656Z,41.08
2019-04-14T11:07:53.233Z,41.30
2019-04-14T11:10:22.820Z,42.15
2019-04-14T11:12:52.431Z,41.68
2019-04-14T11:15:22.033Z,42.70
2019-04-14T11:17:51.625Z,43.30
2019-04-14T11:20:21.272Z,42.93
2019-04-14T11:23:02.527Z,42.78
2019-04-14T11:25:22.154Z,42.23
2019-04-14T11:27:51.737Z,42.60
2019-04-14T11:30:22.935Z,41.77
2019-04-14T11:33:03.214Z,42.80
2019-04-14T11:35:40.385Z,44.27
2019-04-14T11:38:11.602Z,42.58
2019-04-14T11:40:45.619Z,42.83
2019-04-14T11:43:15.249Z,43.10
2019-04-14T11:45:44.930Z,43.08
2019-04-14T11:48:14.533Z,41.90
2019-04-14T11:50:44.126Z,42.48
2019-04-14T11:53:13.712Z,43.55
2019-04-14T11:55:43.292Z,43.28
2019-04-14T11:58:12.892Z,43.33
2019-04-14T12:00:50.517Z,41.05
2019-04-14T12:03:39.810Z,42.20
2019-04-14T19:19:04.930Z,13.80
2019-04-14T19:21:34.495Z,12.93
2019-04-14T19:24:04.153Z,14.93
2019-04-14T19:26:33.739Z,14.65
2019-04-14T19:29:03.424Z,15.18
2019-04-14T19:31:33.059Z,18.17
2019-04-14T19:34:02.671Z,17.15
2019-04-14T19:36:32.250Z,14.73
2019-04-14T19:39:02.191Z,14.75
2019-04-14T19:41:31.801Z,15.78
2019-04-14T19:44:01.488Z,13.30
2019-04-14T19:46:32.877Z,13.85
2019-04-14T19:49:02.820Z,13.98
2019-04-14T19:51:32.431Z,14.23
2019-04-14T19:54:02.092Z,15.00
2019-04-14T19:56:31.684Z,13.90
2019-04-14T19:59:01.363Z,13.13
2019-04-14T20:01:31.829Z,13.85
2019-04-14T20:04:01.375Z,14.53
2019-04-14T20:06:31.036Z,14.83
2019-04-14T20:09:00.692Z,14.05
2019-04-14T20:11:30.294Z,16.27
2019-04-14T20:13:59.956Z,16.52
2019-04-14T20:16:33.789Z,14.60
2019-04-14T20:19:14.573Z,14.25
2019-04-14T20:21:51.986Z,13.70
2019-04-14T20:24:29.354Z,13.43
2019-04-14T20:27:00.781Z,13.98
2019-04-14T20:29:32.067Z,14.50
2019-04-14T20:32:06.056Z,14.47
2019-04-14T20:34:36.619Z,14.50
2019-04-14T20:37:06.211Z,14.23
2019-04-14T20:39:36.693Z,17.73
2019-04-14T20:42:07.106Z,15.08
2019-04-14T20:44:37.157Z,14.40
2019-04-14T20:47:08.484Z,15.80
2019-04-14T20:49:38.553Z,14.53
2019-04-14T20:52:08.688Z,15.78
2019-04-14T20:54:38.278Z,14.23
2019-04-14T20:57:08.016Z,15.30
2019-04-14T20:59:37.620Z,14.45
2019-04-14T21:02:24.302Z,15.10
2019-04-14T21:04:55.592Z,14.25
2019-04-14T21:07:26.840Z,15.40
2019-04-14T21:09:58.079Z,15.60
2019-04-14T21:12:44.631Z,15.53
2019-04-14T21:15:15.863Z,15.98
2019-04-14T21:18:03.137Z,15.23
2019-04-14T21:20:34.623Z,15.23
2019-04-14T21:23:17.701Z,16.20
2019-04-14T21:26:00.158Z,16.75
2019-04-14T21:28:33.971Z,16.20
2019-04-14T21:31:05.266Z,15.08
2019-04-14T21:33:54.313Z,15.05
2019-04-14T21:36:25.520Z,16.35
2019-04-14T21:38:56.761Z,15.65
2019-04-14T21:41:27.975Z,15.83
2019-04-14T21:43:57.557Z,16.40
2019-04-14T21:46:27.131Z,16.17
2019-04-14T21:48:56.769Z,16.02
2019-04-14T21:51:27.922Z,15.78
2019-04-14T21:53:57.516Z,16.12
2019-04-14T21:56:28.735Z,14.95
2019-04-14T21:58:59.983Z,16.27
2019-04-14T22:01:52.537Z,16.45
2019-04-14T22:04:36.399Z,17.40
2019-04-14T22:07:16.898Z,16.57
2019-04-14T22:09:46.915Z,16.70
2019-04-14T22:12:16.493Z,17.87
2019-04-14T22:14:46.087Z,15.95
2019-04-14T22:17:16.046Z,16.07
2019-04-14T22:19:45.644Z,16.70
2019-04-14T22:22:15.231Z,17.30
2019-04-14T22:24:44.831Z,16.35
2019-04-14T22:27:14.403Z,17.45
2019-04-14T22:29:43.998Z,16.37
2019-04-14T22:32:14.574Z,18.17
2019-04-14T22:34:44.212Z,18.45
2019-04-14T22:37:13.829Z,18.27
2019-04-14T22:39:43.460Z,18.25
2019-04-14T22:42:13.040Z,16.90
2019-04-14T22:44:42.640Z,18.52
2019-04-14T22:47:12.216Z,17.60
2019-04-14T22:49:41.815Z,17.57
2019-04-14T22:52:11.409Z,16.90
2019-04-14T22:54:41.004Z,16.75
2019-04-14T22:57:10.603Z,16.95
2019-04-14T22:59:40.211Z,17.20
2019-04-14T23:02:17.683Z,16.90
2019-04-14T23:04:54.865Z,17.10
2019-04-14T23:07:28.999Z,16.55
2019-04-14T23:10:09.147Z,17.45
2019-04-14T23:12:40.367Z,16.35
2019-04-14T23:15:11.831Z,16.77
2019-04-14T23:17:43.056Z,16.87
2019-04-14T23:20:23.011Z,16.73
2019-04-14T23:23:08.217Z,16.48
2019-04-14T23:25:37.980Z,16.07
2019-04-14T23:28:07.626Z,17.57
2019-04-14T23:30:37.271Z,16.32
2019-04-14T23:33:06.848Z,17.05
2019-04-14T23:35:36.465Z,17.92
2019-04-14T23:38:06.215Z,16.42
2019-04-14T23:40:36.211Z,16.60
2019-04-14T23:43:05.792Z,17.23
2019-04-14T23:45:35.409Z,17.42
2019-04-14T23:48:05.062Z,17.10
2019-04-14T23:50:34.648Z,17.27
2019-04-14T23:53:04.264Z,17.27
2019-04-14T23:55:34.119Z,18.02
2019-04-14T23:58:03.788Z,16.02
